sensor_id;sensor_type;location;lat;lon;timestamp;temperature;humidity
35305;DHT22;26433;48.034;-1.764;2023-11-18T00:00:45;12.80;99.90
35305;DHT22;26433;48.034;-1.764;2023-11-18T00:05:48;12.80;99.90
35305;DHT22;26433;48.034;-1.764;2023-11-18T00:10:53;12.80;99.90
35305;DHT22;26433;48.034;-1.764;2023-11-18T00:21:01;12.80;99.90
35305;DHT22;26433;48.034;-1.764;2023-11-18T00:26:05;12.90;99.90
35305;DHT22;26433;48.034;-1.764;2023-11-18T00:31:10;12.90;99.90
35305;DHT22;26433;48.034;-1.764;2023-11-18T00:36:14;13.00;99.90
35305;DHT22;26433;48.034;-1.764;2023-11-18T00:41:19;13.00;99.90
35305;DHT22;26433;48.034;-1.764;2023-11-18T00:51:27;13.00;99.90
35305;DHT22;26433;48.034;-1.764;2023-11-18T00:56:32;13.00;99.90
35305;DHT22;26433;48.034;-1.764;2023-11-18T01:06:39;13.20;99.90
35305;DHT22;26433;48.034;-1.764;2023-11-18T01:11:44;13.20;99.90
35305;DHT22;26433;48.034;-1.764;2023-11-18T01:17:08;13.20;99.90
35305;DHT22;26433;48.034;-1.764;2023-11-18T01:22:12;13.20;99.90
35305;DHT22;26433;48.034;-1.764;2023-11-18T01:27:17;13.30;99.90
35305;DHT22;26433;48.034;-1.764;2023-11-18T01:32:21;13.30;99.90
35305;DHT22;26433;48.034;-1.764;2023-11-18T01:37:26;13.30;99.90
35305;DHT22;26433;48.034;-1.764;2023-11-18T01:42:31;13.30;99.90
35305;DHT22;26433;48.034;-1.764;2023-11-18T01:52:39;13.40;99.90
35305;DHT22;26433;48.034;-1.764;2023-11-18T01:57:49;13.40;99.90
35305;DHT22;26433;48.034;-1.764;2023-11-18T02:07:57;13.40;99.90
35305;DHT22;26433;48.034;-1.764;2023-11-18T02:13:08;13.50;99.90
35305;DHT22;26433;48.034;-1.764;2023-11-18T02:18:14;13.50;99.90
35305;DHT22;26433;48.034;-1.764;2023-11-18T02:23:20;13.50;99.90
35305;DHT22;26433;48.034;-1.764;2023-11-18T02:28:25;13.50;99.90
35305;DHT22;26433;48.034;-1.764;2023-11-18T02:33:35;13.60;99.90
35305;DHT22;26433;48.034;-1.764;2023-11-18T02:38:46;13.60;99.90
35305;DHT22;26433;48.034;-1.764;2023-11-18T02:43:53;13.70;99.90
35305;DHT22;26433;48.034;-1.764;2023-11-18T02:49:00;13.70;99.90
35305;DHT22;26433;48.034;-1.764;2023-11-18T02:54:04;13.70;99.90
35305;DHT22;26433;48.034;-1.764;2023-11-18T02:59:10;13.80;99.90
35305;DHT22;26433;48.034;-1.764;2023-11-18T03:14:23;13.90;99.90
35305;DHT22;26433;48.034;-1.764;2023-11-18T03:19:26;14.00;99.90
35305;DHT22;26433;48.034;-1.764;2023-11-18T03:24:31;14.00;99.90
35305;DHT22;26433;48.034;-1.764;2023-11-18T03:29:36;14.00;99.90
35305;DHT22;26433;48.034;-1.764;2023-11-18T03:34:42;14.10;99.90
35305;DHT22;26433;48.034;-1.764;2023-11-18T03:39:46;14.20;99.90
35305;DHT22;26433;48.034;-1.764;2023-11-18T03:44:51;14.20;99.90
35305;DHT22;26433;48.034;-1.764;2023-11-18T03:49:54;14.20;99.90
35305;DHT22;26433;48.034;-1.764;2023-11-18T03:54:58;14.30;99.90
35305;DHT22;26433;48.034;-1.764;2023-11-18T04:00:04;14.30;99.90
35305;DHT22;26433;48.034;-1.764;2023-11-18T04:05:11;14.30;99.90
35305;DHT22;26433;48.034;-1.764;2023-11-18T04:10:15;14.40;99.90
35305;DHT22;26433;48.034;-1.764;2023-11-18T04:15:21;14.40;99.90
35305;DHT22;26433;48.034;-1.764;2023-11-18T04:20:25;14.40;99.90
35305;DHT22;26433;48.034;-1.764;2023-11-18T04:30:34;14.40;99.90
35305;DHT22;26433;48.034;-1.764;2023-11-18T04:35:37;14.50;99.90
35305;DHT22;26433;48.034;-1.764;2023-11-18T04:45:48;14.50;99.90
35305;DHT22;26433;48.034;-1.764;2023-11-18T04:50:51;14.50;99.90
35305;DHT22;26433;48.034;-1.764;2023-11-18T04:55:55;14.50;99.90
35305;DHT22;26433;48.034;-1.764;2023-11-18T05:01:00;14.50;99.90
35305;DHT22;26433;48.034;-1.764;2023-11-18T05:06:04;14.50;99.90
35305;DHT22;26433;48.034;-1.764;2023-11-18T05:16:12;14.50;99.90
35305;DHT22;26433;48.034;-1.764;2023-11-18T05:21:16;14.60;99.90
35305;DHT22;26433;48.034;-1.764;2023-11-18T05:26:20;14.60;99.90
35305;DHT22;26433;48.034;-1.764;2023-11-18T05:31:25;14.60;99.90
35305;DHT22;26433;48.034;-1.764;2023-11-18T05:36:30;14.70;99.90
35305;DHT22;26433;48.034;-1.764;2023-11-18T05:41:39;14.70;99.90
35305;DHT22;26433;48.034;-1.764;2023-11-18T05:46:48;14.80;99.90
35305;DHT22;26433;48.034;-1.764;2023-11-18T05:51:54;14.80;99.90
35305;DHT22;26433;48.034;-1.764;2023-11-18T05:56:58;14.80;99.90
35305;DHT22;26433;48.034;-1.764;2023-11-18T06:02:03;14.80;99.90
35305;DHT22;26433;48.034;-1.764;2023-11-18T06:07:07;14.80;99.90
35305;DHT22;26433;48.034;-1.764;2023-11-18T06:17:16;14.80;99.90
35305;DHT22;26433;48.034;-1.764;2023-11-18T06:22:21;14.80;99.90
35305;DHT22;26433;48.034;-1.764;2023-11-18T06:27:27;14.80;99.90
35305;DHT22;26433;48.034;-1.764;2023-11-18T06:32:33;14.80;99.90
35305;DHT22;26433;48.034;-1.764;2023-11-18T06:37:36;14.80;99.90
35305;DHT22;26433;48.034;-1.764;2023-11-18T06:42:40;14.80;99.90
35305;DHT22;26433;48.034;-1.764;2023-11-18T06:47:45;14.90;99.90
35305;DHT22;26433;48.034;-1.764;2023-11-18T06:52:49;14.90;99.90
35305;DHT22;26433;48.034;-1.764;2023-11-18T07:02:58;15.00;99.90
35305;DHT22;26433;48.034;-1.764;2023-11-18T07:08:04;14.90;99.90
35305;DHT22;26433;48.034;-1.764;2023-11-18T07:13:08;15.00;99.90
35305;DHT22;26433;48.034;-1.764;2023-11-18T07:18:14;15.00;99.90
35305;DHT22;26433;48.034;-1.764;2023-11-18T07:23:18;15.00;99.90
35305;DHT22;26433;48.034;-1.764;2023-11-18T07:28:22;15.10;99.90
35305;DHT22;26433;48.034;-1.764;2023-11-18T07:33:27;15.10;99.90
35305;DHT22;26433;48.034;-1.764;2023-11-18T07:38:30;15.10;99.90
35305;DHT22;26433;48.034;-1.764;2023-11-18T07:43:34;15.20;99.90
35305;DHT22;26433;48.034;-1.764;2023-11-18T07:48:41;15.20;99.90
35305;DHT22;26433;48.034;-1.764;2023-11-18T07:53:44;15.30;99.90
35305;DHT22;26433;48.034;-1.764;2023-11-18T07:58:48;15.30;99.90
35305;DHT22;26433;48.034;-1.764;2023-11-18T08:03:54;15.40;99.90
35305;DHT22;26433;48.034;-1.764;2023-11-18T08:08:57;15.40;99.90
35305;DHT22;26433;48.034;-1.764;2023-11-18T08:14:01;15.50;99.90
35305;DHT22;26433;48.034;-1.764;2023-11-18T08:19:06;15.50;99.90
35305;DHT22;26433;48.034;-1.764;2023-11-18T08:24:10;15.60;99.90
35305;DHT22;26433;48.034;-1.764;2023-11-18T08:29:14;15.60;99.90
35305;DHT22;26433;48.034;-1.764;2023-11-18T08:34:20;15.60;99.90
35305;DHT22;26433;48.034;-1.764;2023-11-18T08:39:23;15.60;99.90
35305;DHT22;26433;48.034;-1.764;2023-11-18T08:44:28;15.70;99.90
35305;DHT22;26433;48.034;-1.764;2023-11-18T08:49:33;15.70;99.90
35305;DHT22;26433;48.034;-1.764;2023-11-18T08:54:36;15.80;99.90
35305;DHT22;26433;48.034;-1.764;2023-11-18T08:59:40;15.90;99.90
35305;DHT22;26433;48.034;-1.764;2023-11-18T09:04:45;16.00;99.90
35305;DHT22;26433;48.034;-1.764;2023-11-18T09:09:48;16.00;99.90
35305;DHT22;26433;48.034;-1.764;2023-11-18T09:14:55;16.00;99.90
35305;DHT22;26433;48.034;-1.764;2023-11-18T09:20:00;16.00;99.90
35305;DHT22;26433;48.034;-1.764;2023-11-18T09:25:05;16.10;99.90
35305;DHT22;26433;48.034;-1.764;2023-11-18T09:30:11;16.10;99.90
35305;DHT22;26433;48.034;-1.764;2023-11-18T09:35:18;16.10;99.90
35305;DHT22;26433;48.034;-1.764;2023-11-18T09:40:23;16.10;99.90
35305;DHT22;26433;48.034;-1.764;2023-11-18T09:45:31;16.20;99.90
35305;DHT22;26433;48.034;-1.764;2023-11-18T09:50:37;16.20;99.90
35305;DHT22;26433;48.034;-1.764;2023-11-18T09:55:49;16.20;99.90
35305;DHT22;26433;48.034;-1.764;2023-11-18T10:00:58;16.20;99.90
35305;DHT22;26433;48.034;-1.764;2023-11-18T10:06:06;16.20;99.90
35305;DHT22;26433;48.034;-1.764;2023-11-18T10:11:11;16.20;99.90
35305;DHT22;26433;48.034;-1.764;2023-11-18T10:16:16;16.20;99.90
35305;DHT22;26433;48.034;-1.764;2023-11-18T10:21:34;16.30;99.90
35305;DHT22;26433;48.034;-1.764;2023-11-18T10:26:43;16.30;99.90
35305;DHT22;26433;48.034;-1.764;2023-11-18T10:31:47;16.30;99.90
35305;DHT22;26433;48.034;-1.764;2023-11-18T10:37:00;16.40;99.90
35305;DHT22;26433;48.034;-1.764;2023-11-18T10:47:11;16.40;99.90
35305;DHT22;26433;48.034;-1.764;2023-11-18T10:52:18;16.50;99.90
35305;DHT22;26433;48.034;-1.764;2023-11-18T10:57:23;16.60;99.90
35305;DHT22;26433;48.034;-1.764;2023-11-18T11:02:30;16.60;99.90
35305;DHT22;26433;48.034;-1.764;2023-11-18T11:07:38;16.70;99.90
35305;DHT22;26433;48.034;-1.764;2023-11-18T11:12:48;16.70;99.90
35305;DHT22;26433;48.034;-1.764;2023-11-18T11:17:55;16.70;99.90
35305;DHT22;26433;48.034;-1.764;2023-11-18T11:23:13;16.80;99.90
35305;DHT22;26433;48.034;-1.764;2023-11-18T11:28:22;16.80;99.90
35305;DHT22;26433;48.034;-1.764;2023-11-18T11:33:30;16.90;99.90
35305;DHT22;26433;48.034;-1.764;2023-11-18T11:38:44;16.90;99.90
35305;DHT22;26433;48.034;-1.764;2023-11-18T11:43:49;17.00;99.90
35305;DHT22;26433;48.034;-1.764;2023-11-18T11:48:53;17.00;99.90
35305;DHT22;26433;48.034;-1.764;2023-11-18T11:54:02;17.10;99.90
35305;DHT22;26433;48.034;-1.764;2023-11-18T11:59:17;17.10;99.90
35305;DHT22;26433;48.034;-1.764;2023-11-18T12:04:23;17.20;99.90
35305;DHT22;26433;48.034;-1.764;2023-11-18T12:09:32;17.20;99.90
35305;DHT22;26433;48.034;-1.764;2023-11-18T12:14:49;17.30;99.90
35305;DHT22;26433;48.034;-1.764;2023-11-18T12:19:54;17.40;99.90
35305;DHT22;26433;48.034;-1.764;2023-11-18T12:25:33;17.40;99.90
35305;DHT22;26433;48.034;-1.764;2023-11-18T12:30:39;17.50;99.90
35305;DHT22;26433;48.034;-1.764;2023-11-18T12:36:17;17.60;99.90
35305;DHT22;26433;48.034;-1.764;2023-11-18T12:41:34;17.70;99.90
35305;DHT22;26433;48.034;-1.764;2023-11-18T12:46:50;17.80;99.90
35305;DHT22;26433;48.034;-1.764;2023-11-18T12:51:55;17.90;99.90
35305;DHT22;26433;48.034;-1.764;2023-11-18T12:57:01;18.00;99.90
35305;DHT22;26433;48.034;-1.764;2023-11-18T13:02:07;18.00;99.90
35305;DHT22;26433;48.034;-1.764;2023-11-18T13:07:16;18.00;99.90
35305;DHT22;26433;48.034;-1.764;2023-11-18T13:12:22;18.10;99.90
35305;DHT22;26433;48.034;-1.764;2023-11-18T13:17:26;18.10;99.90
35305;DHT22;26433;48.034;-1.764;2023-11-18T13:22:30;18.10;99.90
35305;DHT22;26433;48.034;-1.764;2023-11-18T13:27:50;18.10;99.90
35305;DHT22;26433;48.034;-1.764;2023-11-18T13:32:53;18.00;99.90
35305;DHT22;26433;48.034;-1.764;2023-11-18T13:37:58;18.00;99.90
35305;DHT22;26433;48.034;-1.764;2023-11-18T13:43:03;17.90;99.90
35305;DHT22;26433;48.034;-1.764;2023-11-18T13:48:11;17.80;99.90
35305;DHT22;26433;48.034;-1.764;2023-11-18T13:53:16;17.70;99.90
35305;DHT22;26433;48.034;-1.764;2023-11-18T13:58:21;17.70;99.90
35305;DHT22;26433;48.034;-1.764;2023-11-18T14:03:26;17.60;99.90
35305;DHT22;26433;48.034;-1.764;2023-11-18T14:08:30;17.60;99.90
35305;DHT22;26433;48.034;-1.764;2023-11-18T14:13:35;17.50;99.90
35305;DHT22;26433;48.034;-1.764;2023-11-18T14:18:39;17.50;99.90
35305;DHT22;26433;48.034;-1.764;2023-11-18T14:23:44;17.50;99.90
35305;DHT22;26433;48.034;-1.764;2023-11-18T14:28:49;17.40;99.90
35305;DHT22;26433;48.034;-1.764;2023-11-18T14:33:53;17.40;99.90
35305;DHT22;26433;48.034;-1.764;2023-11-18T14:39:00;17.30;99.90
35305;DHT22;26433;48.034;-1.764;2023-11-18T14:44:06;17.40;99.90
35305;DHT22;26433;48.034;-1.764;2023-11-18T14:49:11;17.40;99.90
35305;DHT22;26433;48.034;-1.764;2023-11-18T14:59:21;17.40;99.90
35305;DHT22;26433;48.034;-1.764;2023-11-18T15:04:25;17.50;99.90
35305;DHT22;26433;48.034;-1.764;2023-11-18T15:09:29;17.50;99.90
35305;DHT22;26433;48.034;-1.764;2023-11-18T15:14:35;17.50;99.90
35305;DHT22;26433;48.034;-1.764;2023-11-18T15:19:42;17.50;99.90
35305;DHT22;26433;48.034;-1.764;2023-11-18T15:24:46;17.50;99.90
35305;DHT22;26433;48.034;-1.764;2023-11-18T15:29:51;17.40;99.90
35305;DHT22;26433;48.034;-1.764;2023-11-18T15:34:54;17.40;99.90
35305;DHT22;26433;48.034;-1.764;2023-11-18T15:40:00;17.40;99.90
35305;DHT22;26433;48.034;-1.764;2023-11-18T15:45:08;17.50;99.90
35305;DHT22;26433;48.034;-1.764;2023-11-18T15:50:13;17.50;99.90
35305;DHT22;26433;48.034;-1.764;2023-11-18T15:55:18;17.50;99.90
35305;DHT22;26433;48.034;-1.764;2023-11-18T16:00:25;17.40;99.90
35305;DHT22;26433;48.034;-1.764;2023-11-18T16:05:29;17.40;99.90
35305;DHT22;26433;48.034;-1.764;2023-11-18T16:10:37;17.40;99.90
35305;DHT22;26433;48.034;-1.764;2023-11-18T16:15:42;17.40;99.90
35305;DHT22;26433;48.034;-1.764;2023-11-18T16:20:45;17.30;99.90
35305;DHT22;26433;48.034;-1.764;2023-11-18T16:25:49;17.30;99.90
35305;DHT22;26433;48.034;-1.764;2023-11-18T16:30:54;17.30;99.90
35305;DHT22;26433;48.034;-1.764;2023-11-18T16:35:58;17.30;99.90
35305;DHT22;26433;48.034;-1.764;2023-11-18T16:41:02;17.20;99.90
35305;DHT22;26433;48.034;-1.764;2023-11-18T16:46:07;17.20;99.90
35305;DHT22;26433;48.034;-1.764;2023-11-18T16:51:12;17.20;99.90
35305;DHT22;26433;48.034;-1.764;2023-11-18T16:56:16;17.20;99.90
35305;DHT22;26433;48.034;-1.764;2023-11-18T17:01:21;17.20;99.90
35305;DHT22;26433;48.034;-1.764;2023-11-18T17:06:26;17.20;99.90
35305;DHT22;26433;48.034;-1.764;2023-11-18T17:11:30;17.20;99.90
35305;DHT22;26433;48.034;-1.764;2023-11-18T17:16:35;17.20;99.90
35305;DHT22;26433;48.034;-1.764;2023-11-18T17:21:38;17.20;99.90
35305;DHT22;26433;48.034;-1.764;2023-11-18T17:26:42;17.20;99.90
35305;DHT22;26433;48.034;-1.764;2023-11-18T17:31:47;17.20;99.90
35305;DHT22;26433;48.034;-1.764;2023-11-18T17:36:51;17.20;99.90
35305;DHT22;26433;48.034;-1.764;2023-11-18T17:41:55;17.20;99.90
35305;DHT22;26433;48.034;-1.764;2023-11-18T17:47:01;17.20;99.90
35305;DHT22;26433;48.034;-1.764;2023-11-18T17:52:05;17.20;99.90
35305;DHT22;26433;48.034;-1.764;2023-11-18T17:57:08;17.20;99.90
35305;DHT22;26433;48.034;-1.764;2023-11-18T18:02:14;17.20;99.90
35305;DHT22;26433;48.034;-1.764;2023-11-18T18:07:17;17.20;99.90
35305;DHT22;26433;48.034;-1.764;2023-11-18T18:12:21;17.20;99.90
35305;DHT22;26433;48.034;-1.764;2023-11-18T18:17:26;17.20;99.90
35305;DHT22;26433;48.034;-1.764;2023-11-18T18:22:30;17.20;99.90
35305;DHT22;26433;48.034;-1.764;2023-11-18T18:27:33;17.20;99.90
35305;DHT22;26433;48.034;-1.764;2023-11-18T18:32:38;17.20;99.90
35305;DHT22;26433;48.034;-1.764;2023-11-18T18:37:42;17.20;99.90
35305;DHT22;26433;48.034;-1.764;2023-11-18T18:42:45;17.20;99.90
35305;DHT22;26433;48.034;-1.764;2023-11-18T18:47:50;17.20;99.90
35305;DHT22;26433;48.034;-1.764;2023-11-18T18:52:54;17.20;99.90
35305;DHT22;26433;48.034;-1.764;2023-11-18T18:57:57;17.20;99.90
35305;DHT22;26433;48.034;-1.764;2023-11-18T19:03:03;17.20;99.90
35305;DHT22;26433;48.034;-1.764;2023-11-18T19:08:07;17.20;99.90
35305;DHT22;26433;48.034;-1.764;2023-11-18T19:13:11;17.20;99.90
35305;DHT22;26433;48.034;-1.764;2023-11-18T19:18:17;17.10;99.90
35305;DHT22;26433;48.034;-1.764;2023-11-18T19:23:20;17.20;99.90
35305;DHT22;26433;48.034;-1.764;2023-11-18T19:28:24;17.10;99.90
35305;DHT22;26433;48.034;-1.764;2023-11-18T19:33:29;17.10;99.90
35305;DHT22;26433;48.034;-1.764;2023-11-18T19:38:32;17.10;99.90
35305;DHT22;26433;48.034;-1.764;2023-11-18T19:43:37;17.10;99.90
35305;DHT22;26433;48.034;-1.764;2023-11-18T19:48:41;17.10;99.90
35305;DHT22;26433;48.034;-1.764;2023-11-18T19:53:45;17.10;99.90
35305;DHT22;26433;48.034;-1.764;2023-11-18T19:58:49;17.10;99.90
35305;DHT22;26433;48.034;-1.764;2023-11-18T20:03:54;17.10;99.90
35305;DHT22;26433;48.034;-1.764;2023-11-18T20:08:57;17.00;99.90
35305;DHT22;26433;48.034;-1.764;2023-11-18T20:14:00;17.10;99.90
35305;DHT22;26433;48.034;-1.764;2023-11-18T20:19:05;17.10;99.90
35305;DHT22;26433;48.034;-1.764;2023-11-18T20:24:09;17.00;99.90
35305;DHT22;26433;48.034;-1.764;2023-11-18T20:29:12;17.10;99.90
35305;DHT22;26433;48.034;-1.764;2023-11-18T20:34:18;17.10;99.90
35305;DHT22;26433;48.034;-1.764;2023-11-18T20:39:21;17.10;99.90
35305;DHT22;26433;48.034;-1.764;2023-11-18T20:44:25;17.20;99.90
35305;DHT22;26433;48.034;-1.764;2023-11-18T20:49:30;17.20;99.90
35305;DHT22;26433;48.034;-1.764;2023-11-18T20:54:33;17.20;99.90
35305;DHT22;26433;48.034;-1.764;2023-11-18T20:59:38;17.20;99.90
35305;DHT22;26433;48.034;-1.764;2023-11-18T21:04:43;17.20;99.90
35305;DHT22;26433;48.034;-1.764;2023-11-18T21:09:46;17.20;99.90
35305;DHT22;26433;48.034;-1.764;2023-11-18T21:14:50;17.20;99.90
35305;DHT22;26433;48.034;-1.764;2023-11-18T21:19:55;17.20;99.90
35305;DHT22;26433;48.034;-1.764;2023-11-18T21:24:58;17.20;99.90
35305;DHT22;26433;48.034;-1.764;2023-11-18T21:30:03;17.20;99.90
35305;DHT22;26433;48.034;-1.764;2023-11-18T21:35:09;17.10;99.90
35305;DHT22;26433;48.034;-1.764;2023-11-18T21:40:14;17.10;99.90
35305;DHT22;26433;48.034;-1.764;2023-11-18T21:45:19;17.10;99.90
35305;DHT22;26433;48.034;-1.764;2023-11-18T21:50:27;17.10;99.90
35305;DHT22;26433;48.034;-1.764;2023-11-18T21:55:31;17.10;99.90
35305;DHT22;26433;48.034;-1.764;2023-11-18T22:00:35;17.10;99.90
35305;DHT22;26433;48.034;-1.764;2023-11-18T22:05:48;17.00;99.90
35305;DHT22;26433;48.034;-1.764;2023-11-18T22:10:52;17.00;99.90
35305;DHT22;26433;48.034;-1.764;2023-11-18T22:15:57;17.00;99.90
35305;DHT22;26433;48.034;-1.764;2023-11-18T22:21:04;17.00;99.90
35305;DHT22;26433;48.034;-1.764;2023-11-18T22:26:08;16.90;99.90
35305;DHT22;26433;48.034;-1.764;2023-11-18T22:31:12;16.90;99.90
35305;DHT22;26433;48.034;-1.764;2023-11-18T22:36:17;16.90;99.90
35305;DHT22;26433;48.034;-1.764;2023-11-18T22:41:20;16.90;99.90
35305;DHT22;26433;48.034;-1.764;2023-11-18T22:46:24;16.90;99.90
35305;DHT22;26433;48.034;-1.764;2023-11-18T22:51:29;16.90;99.90
35305;DHT22;26433;48.034;-1.764;2023-11-18T22:56:33;16.90;99.90
35305;DHT22;26433;48.034;-1.764;2023-11-18T23:01:38;16.90;99.90
35305;DHT22;26433;48.034;-1.764;2023-11-18T23:06:43;16.90;99.90
35305;DHT22;26433;48.034;-1.764;2023-11-18T23:11:47;16.90;99.90
35305;DHT22;26433;48.034;-1.764;2023-11-18T23:16:51;16.90;99.90
35305;DHT22;26433;48.034;-1.764;2023-11-18T23:21:56;16.90;99.90
35305;DHT22;26433;48.034;-1.764;2023-11-18T23:27:00;16.80;99.90
35305;DHT22;26433;48.034;-1.764;2023-11-18T23:32:04;16.70;99.90
35305;DHT22;26433;48.034;-1.764;2023-11-18T23:37:09;16.70;99.90
35305;DHT22;26433;48.034;-1.764;2023-11-18T23:42:15;16.60;99.90
35305;DHT22;26433;48.034;-1.764;2023-11-18T23:47:19;16.60;99.90
35305;DHT22;26433;48.034;-1.764;2023-11-18T23:52:23;16.60;99.90
35305;DHT22;26433;48.034;-1.764;2023-11-18T23:57:27;16.50;99.90
